createdAt,value
2022-12-12T00:01:48.704Z,-3.89
2022-12-12T00:04:15.413Z,-3.96
2022-12-12T00:06:42.122Z,-3.94
2022-12-12T00:09:09.602Z,-3.95
2022-12-12T00:11:36.419Z,-3.96
2022-12-12T00:14:03.918Z,-4.20
2022-12-12T00:16:31.457Z,-4.29
2022-12-12T00:18:58.259Z,-4.13
2022-12-12T00:21:27.762Z,-3.90
2022-12-12T00:23:55.135Z,-3.80
2022-12-12T00:26:24.961Z,-3.86
2022-12-12T00:28:52.165Z,-3.74
2022-12-12T00:31:19.620Z,-3.78
2022-12-12T00:33:48.992Z,-3.70
2022-12-12T00:36:22.212Z,-3.71
2022-12-12T00:38:49.030Z,-3.74
2022-12-12T00:41:16.496Z,-3.70
2022-12-12T00:43:43.435Z,-3.71
2022-12-12T00:46:15.166Z,-3.99
2022-12-12T00:48:42.607Z,-3.98
2022-12-12T00:51:11.954Z,-3.84
2022-12-12T00:53:39.138Z,-3.96
2022-12-12T00:56:06.255Z,-3.89
2022-12-12T00:58:33.670Z,-3.76
2022-12-12T01:01:06.531Z,-3.68
2022-12-12T01:03:38.597Z,-3.79
2022-12-12T01:06:06.209Z,-3.83
2022-12-12T01:08:33.086Z,-3.71
2022-12-12T01:10:59.861Z,-3.63
2022-12-12T01:13:27.870Z,-3.56
2022-12-12T01:15:54.737Z,-3.42
2022-12-12T01:18:21.665Z,-3.33
2022-12-12T01:20:48.610Z,-3.40
2022-12-12T01:23:15.787Z,-3.53
2022-12-12T01:25:42.634Z,-3.46
2022-12-12T01:28:09.802Z,-3.45
2022-12-12T01:30:37.288Z,-3.34
2022-12-12T01:33:04.448Z,-3.22
2022-12-12T01:35:33.246Z,-3.21
2022-12-12T01:38:00.094Z,-3.12
2022-12-12T01:40:29.891Z,-3.07
2022-12-12T01:42:57.040Z,-3.04
2022-12-12T01:45:58.274Z,-3.02
2022-12-12T01:48:38.598Z,-3.01
2022-12-12T01:51:27.533Z,-3.29
2022-12-12T01:54:01.774Z,-3.30
2022-12-12T01:56:29.069Z,-3.31
2022-12-12T01:58:57.477Z,-3.56
2022-12-12T02:01:25.005Z,-3.68
2022-12-12T02:03:52.606Z,-3.74
2022-12-12T02:06:25.063Z,-3.73
2022-12-12T02:08:55.185Z,-3.68
2022-12-12T02:11:21.934Z,-3.65
2022-12-12T02:13:49.765Z,-3.59
2022-12-12T02:16:34.741Z,-3.62
2022-12-12T02:19:17.799Z,-3.63
2022-12-12T02:22:13.114Z,-3.72
2022-12-12T02:25:07.417Z,-3.79
2022-12-12T02:27:46.102Z,-3.85
2022-12-12T02:30:29.150Z,-3.91
2022-12-12T02:33:08.079Z,-3.91
2022-12-12T02:36:11.688Z,-3.94
2022-12-12T02:39:04.133Z,-4.29
2022-12-12T02:41:42.800Z,-4.42
2022-12-12T02:44:28.290Z,-4.46
2022-12-12T02:47:14.169Z,-4.50
2022-12-12T02:49:50.077Z,-4.35
2022-12-12T02:52:17.807Z,-4.19
2022-12-12T02:54:44.816Z,-4.21
2022-12-12T02:57:17.693Z,-4.14
2022-12-12T02:59:50.498Z,-4.08
2022-12-12T03:02:35.952Z,-4.14
2022-12-12T03:05:42.634Z,-4.28
2022-12-12T03:08:44.616Z,-4.33
2022-12-12T03:11:14.782Z,-4.27
2022-12-12T03:13:46.075Z,-4.10
2022-12-12T03:16:24.373Z,-3.99
2022-12-12T03:19:26.832Z,-4.01
2022-12-12T03:22:22.690Z,-3.91
2022-12-12T03:24:58.254Z,-3.93
2022-12-12T03:27:56.954Z,-3.77
2022-12-12T03:30:24.070Z,-3.66
2022-12-12T03:33:06.628Z,-3.52
2022-12-12T03:35:37.760Z,-3.43
2022-12-12T03:38:22.798Z,-3.36
2022-12-12T03:40:53.340Z,-3.34
2022-12-12T03:43:23.052Z,-3.28
2022-12-12T03:46:03.525Z,-3.45
2022-12-12T03:48:33.603Z,-3.47
2022-12-12T03:51:07.945Z,-3.43
2022-12-12T03:53:43.696Z,-3.32
2022-12-12T03:56:10.322Z,-3.24
2022-12-12T03:58:51.589Z,-3.19
2022-12-12T04:01:22.566Z,-3.16
2022-12-12T04:04:08.270Z,-3.16
2022-12-12T04:06:39.997Z,-3.20
2022-12-12T04:09:34.419Z,-3.29
2022-12-12T04:12:31.404Z,-3.42
2022-12-12T04:15:13.662Z,-3.40
2022-12-12T04:18:07.934Z,-3.34
2022-12-12T04:21:10.634Z,-3.30
2022-12-12T04:23:48.295Z,-3.34
2022-12-12T04:26:41.672Z,-3.40
2022-12-12T04:29:08.304Z,-3.62
2022-12-12T04:31:41.362Z,-3.72
2022-12-12T04:34:15.448Z,-3.95
2022-12-12T04:36:45.345Z,-3.99
2022-12-12T04:39:15.521Z,-4.04
2022-12-12T04:41:45.894Z,-4.21
2022-12-12T04:44:16.193Z,-4.16
2022-12-12T04:46:44.928Z,-4.11
2022-12-12T04:49:27.455Z,-4.12
2022-12-12T04:52:00.063Z,-4.49
2022-12-12T04:54:47.924Z,-4.66
2022-12-12T04:57:23.427Z,-4.65
2022-12-12T04:59:50.272Z,-4.56
2022-12-12T05:02:35.480Z,-4.41
2022-12-12T05:05:07.000Z,-4.34
2022-12-12T05:07:43.012Z,-4.47
2022-12-12T05:10:16.331Z,-4.52
2022-12-12T05:12:49.155Z,-4.37
2022-12-12T05:15:17.626Z,-4.32
2022-12-12T05:18:00.825Z,-4.30
2022-12-12T05:20:29.681Z,-4.33
2022-12-12T05:22:56.422Z,-4.40
2022-12-12T05:25:23.281Z,-4.47
2022-12-12T05:27:50.032Z,-4.49
2022-12-12T05:30:17.290Z,-4.57
2022-12-12T05:32:44.227Z,-4.60
2022-12-12T05:35:11.348Z,-4.64
2022-12-12T05:37:38.963Z,-4.63
2022-12-12T05:40:08.440Z,-4.62
2022-12-12T05:42:40.057Z,-4.60
2022-12-12T05:45:09.101Z,-4.64
2022-12-12T05:47:35.838Z,-4.68
2022-12-12T05:50:02.742Z,-4.67
2022-12-12T05:52:29.581Z,-4.65
2022-12-12T05:54:56.277Z,-4.79
2022-12-12T05:57:23.078Z,-4.66
2022-12-12T05:59:49.888Z,-4.79
2022-12-12T06:02:16.886Z,-4.96
2022-12-12T06:04:43.704Z,-4.95
2022-12-12T06:07:10.550Z,-4.73
2022-12-12T06:09:37.320Z,-4.57
2022-12-12T06:12:04.235Z,-4.46
2022-12-12T06:14:30.956Z,-4.51
2022-12-12T06:16:57.732Z,-4.43
2022-12-12T06:19:24.428Z,-4.41
2022-12-12T06:21:51.193Z,-4.52
2022-12-12T06:24:17.857Z,-4.53
2022-12-12T06:26:44.690Z,-4.30
2022-12-12T06:29:14.858Z,-4.43
2022-12-12T06:31:41.829Z,-4.64
2022-12-12T06:34:08.675Z,-4.65
2022-12-12T06:36:35.388Z,-4.69
2022-12-12T06:39:02.403Z,-4.71
2022-12-12T06:41:31.174Z,-4.80
2022-12-12T06:43:58.245Z,-5.18
2022-12-12T06:46:28.669Z,-5.09
2022-12-12T06:48:56.882Z,-5.09
2022-12-12T06:51:29.079Z,-5.17
2022-12-12T06:53:56.636Z,-5.11
2022-12-12T06:56:25.371Z,-5.22
2022-12-12T06:58:53.668Z,-5.67
2022-12-12T07:01:22.818Z,-5.69
2022-12-12T07:03:50.848Z,-5.57
2022-12-12T07:06:19.785Z,-5.51
2022-12-12T07:08:47.385Z,-5.48
2022-12-12T07:11:17.087Z,-5.78
2022-12-12T07:13:44.718Z,-5.96
2022-12-12T07:16:11.847Z,-5.80
2022-12-12T07:18:39.133Z,-5.78
2022-12-12T07:21:08.711Z,-5.74
2022-12-12T07:23:37.267Z,-5.72
2022-12-12T07:26:06.286Z,-5.90
2022-12-12T07:28:33.228Z,-5.70
2022-12-12T07:31:01.423Z,-5.65
2022-12-12T07:33:39.541Z,-6.01
2022-12-12T07:36:10.214Z,-5.89
2022-12-12T07:38:36.970Z,-6.01
2022-12-12T07:41:09.321Z,-6.10
2022-12-12T07:43:41.534Z,-5.94
2022-12-12T07:46:11.356Z,-6.18
2022-12-12T07:48:38.103Z,-6.18
2022-12-12T07:51:05.133Z,-6.18
2022-12-12T07:53:31.907Z,-6.23
2022-12-12T07:55:58.758Z,-6.16
2022-12-12T07:58:25.536Z,-5.96
2022-12-12T08:00:52.254Z,-5.81
2022-12-12T08:03:19.040Z,-5.72
2022-12-12T08:05:45.752Z,-5.95
2022-12-12T08:08:12.527Z,-5.79
2022-12-12T08:10:40.391Z,-5.71
2022-12-12T08:13:07.791Z,-5.67
2022-12-12T08:15:34.848Z,-5.58
2022-12-12T08:18:01.614Z,-5.52
2022-12-12T08:20:28.338Z,-5.47
2022-12-12T08:22:55.073Z,-5.58
2022-12-12T08:25:22.191Z,-5.65
2022-12-12T08:27:48.923Z,-5.40
2022-12-12T08:30:16.403Z,-5.25
2022-12-12T08:32:43.250Z,-5.17
2022-12-12T08:35:10.173Z,-5.26
2022-12-12T08:37:37.354Z,-5.08
2022-12-12T08:40:04.688Z,-4.95
2022-12-12T08:42:31.389Z,-4.82
2022-12-12T08:44:58.135Z,-4.70
2022-12-12T08:47:24.903Z,-4.57
2022-12-12T08:49:51.665Z,-4.54
2022-12-12T08:52:18.377Z,-4.32
2022-12-12T08:54:45.070Z,-4.17
2022-12-12T08:57:12.076Z,-4.07
2022-12-12T08:59:38.789Z,-4.07
2022-12-12T09:02:05.729Z,-4.11
2022-12-12T09:04:34.583Z,-3.92
2022-12-12T09:07:05.017Z,-3.85
2022-12-12T09:09:35.083Z,-3.89
2022-12-12T09:12:02.049Z,-3.90
2022-12-12T09:14:28.896Z,-3.60
2022-12-12T09:16:55.900Z,-3.43
2022-12-12T09:19:22.701Z,-3.30
2022-12-12T09:21:49.434Z,-3.23
2022-12-12T09:24:16.608Z,-3.03
2022-12-12T09:26:43.282Z,-2.85
2022-12-12T09:29:11.256Z,-2.72
2022-12-12T09:31:38.083Z,-2.63
2022-12-12T09:34:05.027Z,-2.52
2022-12-12T09:36:31.800Z,-2.42
2022-12-12T09:38:58.619Z,-2.29
2022-12-12T09:41:27.295Z,-2.15
2022-12-12T09:44:09.822Z,-1.98
2022-12-12T09:46:47.203Z,-1.80
2022-12-12T09:49:15.725Z,-1.80
2022-12-12T09:51:49.040Z,-1.78
2022-12-12T09:54:25.400Z,-1.67
2022-12-12T09:56:57.943Z,-1.52
2022-12-12T09:59:53.724Z,-1.37
2022-12-12T10:02:37.187Z,-1.28
2022-12-12T10:05:15.660Z,-1.52
2022-12-12T10:07:56.095Z,-1.57
2022-12-12T10:10:28.817Z,-1.41
2022-12-12T10:12:58.451Z,-1.27
2022-12-12T10:15:29.772Z,-1.12
2022-12-12T10:18:00.299Z,-0.97
2022-12-12T10:20:33.485Z,-0.92
2022-12-12T10:23:03.217Z,-0.90
2022-12-12T10:26:01.735Z,-0.90
2022-12-12T10:28:31.850Z,-1.03
2022-12-12T10:31:05.121Z,-1.03
2022-12-12T10:33:58.005Z,-0.91
2022-12-12T10:36:27.748Z,-0.98
2022-12-12T10:39:06.759Z,-1.01
2022-12-12T10:41:45.650Z,-0.85
2022-12-12T10:44:37.044Z,-0.82
2022-12-12T10:47:09.941Z,-0.71
2022-12-12T10:49:36.892Z,-0.70
2022-12-12T10:52:07.082Z,-0.65
2022-12-12T10:54:39.728Z,-0.59
2022-12-12T10:57:22.124Z,-0.49
2022-12-12T10:59:52.333Z,-0.44
2022-12-12T11:02:25.075Z,-0.34
2022-12-12T11:05:10.364Z,-0.24
2022-12-12T11:07:39.708Z,-0.08
2022-12-12T11:10:26.881Z,0.09
2022-12-12T11:12:59.847Z,0.15
2022-12-12T11:15:38.567Z,0.24
2022-12-12T11:18:06.685Z,0.37
2022-12-12T11:20:33.466Z,0.32
2022-12-12T11:23:00.441Z,0.50
2022-12-12T11:25:30.418Z,0.51
2022-12-12T11:28:06.420Z,0.45
2022-12-12T11:30:41.898Z,0.50
2022-12-12T11:33:17.484Z,0.50
2022-12-12T11:35:47.717Z,0.57
2022-12-12T11:38:20.819Z,0.43
2022-12-12T11:41:07.119Z,0.32
2022-12-12T11:43:53.023Z,0.36
2022-12-12T11:46:28.168Z,0.29
2022-12-12T11:48:54.811Z,0.27
2022-12-12T11:51:36.686Z,0.14
2022-12-12T11:54:29.369Z,0.20
2022-12-12T11:57:03.387Z,0.16
2022-12-12T11:59:30.046Z,0.23
2022-12-12T12:02:14.986Z,0.05
2022-12-12T12:04:58.119Z,0.19
2022-12-12T12:08:03.409Z,0.27
2022-12-12T12:11:02.398Z,0.16
2022-12-12T12:13:56.920Z,0.33
2022-12-12T12:16:38.678Z,0.23
2022-12-12T12:19:19.302Z,0.24
2022-12-12T12:22:04.393Z,0.27
2022-12-12T12:24:37.013Z,0.25
2022-12-12T12:27:18.838Z,0.22
2022-12-12T12:30:03.698Z,0.22
2022-12-12T12:32:58.256Z,0.28
2022-12-12T12:35:32.155Z,0.19
2022-12-12T12:38:06.438Z,0.19
2022-12-12T12:41:01.065Z,0.26
2022-12-12T12:43:30.759Z,0.18
2022-12-12T12:46:12.465Z,0.11
2022-12-12T12:48:53.117Z,0.12
2022-12-12T12:52:06.041Z,0.14
2022-12-12T12:54:38.760Z,0.13
2022-12-12T12:57:30.000Z,0.08
2022-12-12T13:00:00.673Z,0.06
2022-12-12T13:02:56.326Z,0.01
2022-12-12T13:05:39.533Z,-0.03
2022-12-12T13:08:29.164Z,-0.06
2022-12-12T13:11:02.017Z,-0.11
2022-12-12T13:13:36.671Z,-0.14
2022-12-12T13:16:14.264Z,-0.17
2022-12-12T13:18:45.746Z,-0.16
2022-12-12T13:21:34.650Z,-0.19
2022-12-12T13:24:20.101Z,-0.14
2022-12-12T13:26:55.884Z,-0.20
2022-12-12T13:29:45.879Z,-0.30
2022-12-12T13:32:34.439Z,-0.28
2022-12-12T13:35:09.050Z,-0.24
2022-12-12T13:37:45.112Z,-0.25
2022-12-12T13:40:24.277Z,-0.35
2022-12-12T13:43:09.188Z,-0.32
2022-12-12T13:45:45.294Z,-0.43
2022-12-12T13:48:27.452Z,-0.45
2022-12-12T13:51:28.323Z,-0.36
2022-12-12T13:54:11.971Z,-0.28
2022-12-12T13:57:08.476Z,-0.25
2022-12-12T13:59:58.292Z,-0.42
2022-12-12T14:02:32.838Z,-0.49
2022-12-12T14:05:21.580Z,-0.49
2022-12-12T14:07:57.624Z,-0.51
2022-12-12T14:10:35.751Z,-0.61
2022-12-12T14:13:21.154Z,-0.64
2022-12-12T14:16:18.584Z,-0.72
2022-12-12T14:18:51.375Z,-0.77
2022-12-12T14:21:20.837Z,-0.75
2022-12-12T14:23:49.414Z,-0.79
2022-12-12T14:26:28.177Z,-0.86
2022-12-12T14:29:16.586Z,-0.89
2022-12-12T14:32:14.148Z,-1.03
2022-12-12T14:34:49.627Z,-1.11
2022-12-12T14:37:31.139Z,-1.18
2022-12-12T14:40:11.280Z,-1.38
2022-12-12T14:43:20.764Z,-1.36
2022-12-12T14:45:49.071Z,-1.55
2022-12-12T14:48:34.039Z,-1.68
2022-12-12T14:51:07.254Z,-1.71
2022-12-12T14:53:44.003Z,-1.74
2022-12-12T14:56:29.297Z,-1.81
2022-12-12T14:58:59.631Z,-1.95
2022-12-12T15:01:33.434Z,-1.99
2022-12-12T15:04:04.032Z,-2.03
2022-12-12T15:06:34.019Z,-2.24
2022-12-12T15:09:17.536Z,-2.49
2022-12-12T15:11:45.514Z,-2.56
2022-12-12T15:14:30.550Z,-2.52
2022-12-12T15:17:23.613Z,-2.51
2022-12-12T15:20:01.114Z,-2.42
2022-12-12T15:22:33.575Z,-2.38
2022-12-12T15:25:18.205Z,-2.33
2022-12-12T15:27:53.814Z,-2.33
2022-12-12T15:30:41.917Z,-2.46
2022-12-12T15:33:17.323Z,-2.50
2022-12-12T15:36:01.098Z,-2.37
2022-12-12T15:38:29.030Z,-2.36
2022-12-12T15:40:59.047Z,-2.26
2022-12-12T15:43:30.678Z,-2.21
2022-12-12T15:46:00.171Z,-2.11
2022-12-12T15:48:27.716Z,-2.03
2022-12-12T15:51:01.799Z,-1.98
2022-12-12T15:53:31.592Z,-1.95
2022-12-12T15:56:21.309Z,-2.09
2022-12-12T15:58:51.936Z,-2.00
2022-12-12T16:01:28.185Z,-1.95
2022-12-12T16:04:01.045Z,-1.92
2022-12-12T16:06:32.726Z,-1.94
2022-12-12T16:08:59.322Z,-1.86
2022-12-12T16:11:45.883Z,-1.86
2022-12-12T16:14:35.342Z,-1.86
2022-12-12T16:17:24.773Z,-1.94
2022-12-12T16:19:55.946Z,-1.95
2022-12-12T16:22:46.417Z,-1.93
2022-12-12T16:25:28.070Z,-1.71
2022-12-12T16:28:07.763Z,-1.67
2022-12-12T16:30:36.137Z,-1.73
2022-12-12T16:33:33.077Z,-1.82
2022-12-12T16:36:12.779Z,-1.91
2022-12-12T16:38:40.667Z,-1.91
2022-12-12T16:41:17.700Z,-1.91
2022-12-12T16:43:44.903Z,-1.89
2022-12-12T16:46:19.640Z,-1.92
2022-12-12T16:48:46.785Z,-1.94
2022-12-12T16:51:29.930Z,-1.94
2022-12-12T16:53:56.879Z,-1.97
2022-12-12T16:56:23.636Z,-1.93
2022-12-12T16:58:50.931Z,-1.83
2022-12-12T17:01:18.729Z,-1.77
2022-12-12T17:03:45.899Z,-1.81
2022-12-12T17:06:12.666Z,-1.84
2022-12-12T17:08:39.403Z,-2.01
2022-12-12T17:11:10.174Z,-2.12
2022-12-12T17:13:39.324Z,-2.05
2022-12-12T17:16:06.246Z,-1.95
2022-12-12T17:18:33.013Z,-1.91
2022-12-12T17:21:00.016Z,-2.08
2022-12-12T17:23:29.535Z,-2.05
2022-12-12T17:26:02.957Z,-1.97
2022-12-12T17:28:30.786Z,-1.87
2022-12-12T17:30:57.503Z,-1.99
2022-12-12T17:33:24.215Z,-2.05
2022-12-12T17:36:05.863Z,-1.94
2022-12-12T17:38:33.374Z,-1.92
2022-12-12T17:41:04.950Z,-1.95
2022-12-12T17:43:55.471Z,-2.02
2022-12-12T17:46:23.412Z,-1.93
2022-12-12T17:48:50.208Z,-1.93
2022-12-12T17:51:23.863Z,-1.99
2022-12-12T17:53:52.520Z,-1.90
2022-12-12T17:56:24.421Z,-1.83
2022-12-12T17:58:51.684Z,-1.82
2022-12-12T18:01:29.765Z,-1.83
2022-12-12T18:03:58.635Z,-1.83
2022-12-12T18:06:26.722Z,-1.75
2022-12-12T18:08:54.622Z,-1.70
2022-12-12T18:11:26.792Z,-1.69
2022-12-12T18:13:57.441Z,-1.74
2022-12-12T18:16:24.966Z,-1.96
2022-12-12T18:18:52.762Z,-1.94
2022-12-12T18:21:58.533Z,-1.96
2022-12-12T18:24:10.836Z,-2.17
2022-12-12T18:26:37.659Z,-2.17
2022-12-12T18:29:06.681Z,-2.21
2022-12-12T18:31:34.629Z,-2.23
2022-12-12T18:34:01.724Z,-2.16
2022-12-12T18:36:30.374Z,-2.01
2022-12-12T18:38:58.633Z,-2.03
2022-12-12T18:41:27.357Z,-1.99
2022-12-12T18:43:55.188Z,-2.01
2022-12-12T18:46:24.820Z,-2.01
2022-12-12T18:48:51.829Z,-2.09
2022-12-12T18:51:24.172Z,-2.13
2022-12-12T18:53:52.956Z,-2.13
2022-12-12T18:56:26.347Z,-2.05
2022-12-12T18:58:54.459Z,-2.01
2022-12-12T19:01:24.046Z,-1.96
2022-12-12T19:03:53.503Z,-1.92
2022-12-12T19:06:23.314Z,-1.85
2022-12-12T19:08:50.371Z,-1.85
2022-12-12T19:11:17.493Z,-1.88
2022-12-12T19:13:46.381Z,-1.82
2022-12-12T19:16:16.953Z,-1.76
2022-12-12T19:18:44.093Z,-1.68
2022-12-12T19:21:14.707Z,-1.65
2022-12-12T19:23:41.941Z,-1.60
2022-12-12T19:26:12.034Z,-1.60
2022-12-12T19:28:39.107Z,-1.51
2022-12-12T19:31:14.906Z,-1.51
2022-12-12T19:33:44.398Z,-1.53
2022-12-12T19:36:17.248Z,-1.43
2022-12-12T19:38:44.295Z,-1.67
2022-12-12T19:41:15.821Z,-1.79
2022-12-12T19:43:56.587Z,-1.72
2022-12-12T19:46:26.070Z,-1.92
2022-12-12T19:48:58.127Z,-1.90
2022-12-12T19:51:26.101Z,-1.94
2022-12-12T19:53:58.398Z,-1.87
2022-12-12T19:56:27.827Z,-1.86
2022-12-12T19:58:55.772Z,-1.94
2022-12-12T20:01:26.319Z,-1.89
2022-12-12T20:03:55.625Z,-1.94
2022-12-12T20:06:25.203Z,-2.00
2022-12-12T20:08:52.090Z,-1.88
2022-12-12T20:11:21.570Z,-1.80
2022-12-12T20:13:53.107Z,-1.76
2022-12-12T20:16:22.274Z,-1.92
2022-12-12T20:18:49.690Z,-1.87
2022-12-12T20:21:43.562Z,-1.78
2022-12-12T20:24:06.937Z,-1.75
2022-12-12T20:26:34.237Z,-1.69
2022-12-12T20:29:01.350Z,-1.63
2022-12-12T20:31:34.486Z,-1.79
2022-12-12T20:34:01.735Z,-1.67
2022-12-12T20:36:31.163Z,-1.59
2022-12-12T20:39:00.590Z,-1.56
2022-12-12T20:41:30.038Z,-1.53
2022-12-12T20:43:58.433Z,-1.54
2022-12-12T20:46:32.126Z,-1.50
2022-12-12T20:49:04.261Z,-1.49
2022-12-12T20:54:21.573Z,-1.57
2022-12-12T20:56:49.788Z,-1.50
2022-12-12T20:59:16.527Z,-1.46
2022-12-12T21:01:43.298Z,-1.68
2022-12-12T21:04:10.155Z,-1.71
2022-12-12T21:06:39.525Z,-1.73
2022-12-12T21:09:09.830Z,-1.87
2022-12-12T21:11:38.125Z,-1.93
2022-12-12T21:14:06.492Z,-1.93
2022-12-12T21:16:38.562Z,-1.93
2022-12-12T21:19:11.535Z,-1.97
2022-12-12T21:21:40.141Z,-2.03
2022-12-12T21:24:07.064Z,-2.02
2022-12-12T21:26:34.434Z,-1.94
2022-12-12T21:29:01.980Z,-2.27
2022-12-12T21:31:31.851Z,-2.59
2022-12-12T21:33:59.455Z,-2.66
2022-12-12T21:36:28.005Z,-2.78
2022-12-12T21:38:56.395Z,-2.87
2022-12-12T21:41:23.620Z,-2.94
2022-12-12T21:43:50.980Z,-2.91
2022-12-12T21:46:23.378Z,-2.89
2022-12-12T21:49:10.054Z,-2.88
2022-12-12T21:51:37.617Z,-3.12
2022-12-12T21:54:05.624Z,-3.08
2022-12-12T21:56:32.853Z,-3.03
2022-12-12T21:59:00.306Z,-3.00
2022-12-12T22:01:27.790Z,-3.07
2022-12-12T22:03:55.515Z,-3.11
2022-12-12T22:06:25.447Z,-3.15
2022-12-12T22:08:54.716Z,-3.17
2022-12-12T22:11:33.942Z,-3.12
2022-12-12T22:14:09.462Z,-3.06
2022-12-12T22:16:36.939Z,-3.16
2022-12-12T22:19:06.855Z,-3.19
2022-12-12T22:21:34.583Z,-3.42
2022-12-12T22:24:01.924Z,-3.49
2022-12-12T22:26:36.741Z,-3.65
2022-12-12T22:29:06.665Z,-3.55
2022-12-12T22:31:37.439Z,-3.58
2022-12-12T22:34:07.588Z,-3.78
2022-12-12T22:36:36.592Z,-3.96
2022-12-12T22:39:05.529Z,-4.02
2022-12-12T22:42:15.477Z,-4.10
2022-12-12T22:44:42.309Z,-4.08
2022-12-12T22:47:09.112Z,-3.99
2022-12-12T22:49:35.890Z,-3.95
2022-12-12T22:52:02.613Z,-3.97
2022-12-12T22:54:29.311Z,-3.77
2022-12-12T22:56:55.990Z,-3.68
2022-12-12T22:59:22.751Z,-3.55
2022-12-12T23:01:49.455Z,-3.36
2022-12-12T23:04:19.123Z,-3.31
2022-12-12T23:06:45.968Z,-3.20
2022-12-12T23:09:16.707Z,-3.19
2022-12-12T23:11:44.770Z,-2.82
2022-12-12T23:14:14.902Z,-2.59
2022-12-12T23:16:42.793Z,-2.72
2022-12-12T23:19:10.464Z,-2.92
2022-12-12T23:21:38.188Z,-2.99
2022-12-12T23:24:06.012Z,-2.99
2022-12-12T23:26:36.566Z,-2.93
2022-12-12T23:29:07.177Z,-2.86
2022-12-12T23:31:35.995Z,-2.80
2022-12-12T23:34:06.862Z,-2.84
2022-12-12T23:36:33.724Z,-2.86
2022-12-12T23:39:03.746Z,-3.02
2022-12-12T23:41:30.465Z,-3.12
2022-12-12T23:43:57.167Z,-3.03
2022-12-12T23:46:33.448Z,-2.96
2022-12-12T23:49:06.187Z,-2.92
2022-12-12T23:51:36.382Z,-2.90
2022-12-12T23:54:05.141Z,-2.86
2022-12-12T23:56:32.147Z,-2.66
2022-12-12T23:58:59.648Z,-2.87
